Arbon, Idaho
Current Conditions -  °F | °C
As of 4:53 PM on Monday 20 Oct 2014 (Local Time) from KPIH Reporting Station
Scattered Clouds Scattered Clouds  
Wind Chill: 24°   Ceiling: Unl
Heat Index: 24°   Visibility: 10mi
Dew Point:   Wind: 17mph
Humidity: 22%   Direction: 190°S
Pressure: 29.92"   Gusts: NA
Location:  42.46°N, 112.57°W
Report Text: KPIH 202253Z 19015KT 10SM SCT100 24/01 A2992 RMK AO2 SLP109 T02440011
Loading
Personal Weather Stations






























Interactive Weather Map
Tropical Storm Tracking
New forecast layout! Learn more

10-Day Weather Forecast

Advertisements
Track Severe Weather on mobile